Time;durP1;ratioP1;P1;durP2;ratioP2;P2;SDS_P1;SDS_P2;PMS_P1;PMS_P2;Temp;Humidity;BMP_temperature;BMP_pressure;BME280_temperature;BME280_humidity;BME280_pressure;Samples;Min_cycle;Max_cycle;Signal;HPM_P1;HPM_P2
2023/07/10 00:01:46;;;;;;;30.70;24.15;;;19.00;99.90;;;;;;7376238;19;20368;-65
2023/07/10 00:04:20;;;;;;;33.20;27.80;;;19.00;99.90;;;;;;7381184;19;20494;-64
2023/07/10 00:06:46;;;;;;;32.78;26.67;;;19.00;99.90;;;;;;7373116;19;20017;-65
2023/07/10 00:09:13;;;;;;;31.92;25.70;;;18.90;99.90;;;;;;7376943;19;20041;-65
2023/07/10 00:11:40;;;;;;;37.85;25.90;;;18.90;99.90;;;;;;7375758;19;20018;-66
2023/07/10 00:14:17;;;;;;;31.35;26.85;;;18.90;99.90;;;;;;7376684;19;20960;-65
2023/07/10 00:16:48;;;;;;;34.88;27.55;;;18.90;99.90;;;;;;7377533;19;20014;-65
2023/07/10 00:19:15;;;;;;;34.30;24.88;;;18.90;99.90;;;;;;7378119;19;20022;-61
2023/07/10 00:21:41;;;;;;;30.33;27.13;;;18.90;99.90;;;;;;7376430;19;20018;-60
2023/07/10 00:24:08;;;;;;;33.63;25.63;;;18.90;99.90;;;;;;7373142;19;20034;-60
2023/07/10 00:26:37;;;;;;;33.08;25.17;;;18.90;99.90;;;;;;7378002;19;20446;-60
2023/07/10 00:29:19;;;;;;;33.17;25.80;;;18.80;99.90;;;;;;7372292;19;20119;-60
2023/07/10 00:31:45;;;;;;;33.70;25.70;;;18.90;99.90;;;;;;7375448;19;20842;-61
2023/07/10 00:34:15;;;;;;;32.55;26.65;;;18.90;99.90;;;;;;7375510;19;20018;-60
2023/07/10 00:36:43;;;;;;;30.45;26.10;;;18.90;99.90;;;;;;7375390;19;20015;-60
2023/07/10 00:39:25;;;;;;;29.10;25.92;;;18.90;99.90;;;;;;7376586;19;20518;-65
2023/07/10 00:41:57;;;;;;;38.60;29.85;;;18.90;99.90;;;;;;7381632;19;20038;-65
2023/07/10 00:44:38;;;;;;;32.63;29.15;;;18.90;99.90;;;;;;7376889;19;20421;-60
2023/07/10 00:47:27;;;;;;;35.20;31.17;;;18.80;99.90;;;;;;7378597;19;20074;-60
2023/07/10 00:50:04;;;;;;;35.60;30.35;;;18.90;99.90;;;;;;7371659;19;20026;-60
2023/07/10 00:52:38;;;;;;;36.15;31.10;;;18.90;99.90;;;;;;7375723;19;20377;-60
2023/07/10 00:55:23;;;;;;;37.92;32.08;;;18.90;99.90;;;;;;7372863;19;20019;-61
2023/07/10 00:57:59;;;;;;;34.53;30.92;;;18.90;99.90;;;;;;7371715;19;20018;-61
2023/07/10 01:00:27;;;;;;;43.45;34.25;;;18.90;99.90;;;;;;7374465;19;20362;-61
2023/07/10 01:02:53;;;;;;;37.95;33.17;;;18.90;99.90;;;;;;7365953;19;20014;-60
2023/07/10 01:05:20;;;;;;;38.00;34.13;;;18.90;99.90;;;;;;7373898;19;20680;-60
2023/07/10 01:07:51;;;;;;;38.20;33.83;;;18.90;99.90;;;;;;7375762;19;20052;-59
2023/07/10 01:10:17;;;;;;;41.13;34.33;;;18.80;99.90;;;;;;7368543;19;20097;-59
2023/07/10 01:12:45;;;;;;;44.47;37.83;;;18.90;99.90;;;;;;7369214;19;20049;-60
2023/07/10 01:15:12;;;;;;;40.08;35.85;;;18.90;99.90;;;;;;7362474;19;20022;-60
2023/07/10 01:17:39;;;;;;;46.22;35.22;;;18.90;99.90;;;;;;7372450;19;20014;-60
2023/07/10 01:20:28;;;;;;;46.25;36.97;;;18.90;99.90;;;;;;7373422;19;20600;-64
2023/07/10 01:22:57;;;;;;;41.40;35.15;;;18.90;99.90;;;;;;7370941;19;20011;-60
2023/07/10 01:25:23;;;;;;;43.00;35.10;;;18.80;99.90;;;;;;7365319;19;20015;-60
2023/07/10 01:27:49;;;;;;;42.03;36.33;;;18.90;99.90;;;;;;7374002;19;20023;-61
2023/07/10 01:30:31;;;;;;;40.38;36.00;;;18.90;99.90;;;;;;7370604;19;20472;-61
2023/07/10 01:32:58;;;;;;;44.78;37.47;;;18.90;99.90;;;;;;7369804;19;20030;-60
2023/07/10 01:35:28;;;;;;;41.50;36.47;;;18.90;99.90;;;;;;7366987;19;20548;-60
2023/07/10 01:37:55;;;;;;;43.80;37.63;;;18.90;99.90;;;;;;7372273;19;20018;-61
2023/07/10 01:40:29;;;;;;;41.17;36.80;;;18.90;99.90;;;;;;7367910;19;20489;-60
2023/07/10 01:42:59;;;;;;;47.58;35.53;;;18.90;99.90;;;;;;7370329;19;20019;-61
2023/07/10 01:45:28;;;;;;;42.25;36.03;;;18.90;99.90;;;;;;7368081;19;20029;-62
2023/07/10 01:47:56;;;;;;;43.70;36.55;;;18.90;99.90;;;;;;7369613;19;20066;-60
2023/07/10 01:50:22;;;;;;;43.15;38.53;;;18.90;99.90;;;;;;7369739;19;20372;-60
2023/07/10 01:52:49;;;;;;;44.70;35.85;;;18.90;99.90;;;;;;7367876;19;20026;-60
2023/07/10 01:55:18;;;;;;;45.75;38.85;;;18.90;99.90;;;;;;7367374;19;20469;-60
2023/07/10 01:57:44;;;;;;;43.85;37.70;;;18.90;99.90;;;;;;7371625;19;20397;-60
2023/07/10 02:00:12;;;;;;;41.47;36.85;;;18.90;99.90;;;;;;7365794;19;20683;-60
2023/07/10 02:02:38;;;;;;;43.03;38.15;;;18.90;99.90;;;;;;7373163;19;20022;-65
2023/07/10 02:05:06;;;;;;;45.17;37.08;;;18.90;99.90;;;;;;7368749;19;20024;-65
2023/07/10 02:07:32;;;;;;;47.10;38.13;;;18.80;99.90;;;;;;7370192;19;20026;-65
2023/07/10 02:09:59;;;;;;;48.10;38.58;;;18.80;99.90;;;;;;7368411;19;20022;-65
2023/07/10 02:12:26;;;;;;;43.53;37.88;;;18.80;99.90;;;;;;7371061;19;20630;-66
2023/07/10 02:14:52;;;;;;;46.55;38.28;;;18.80;99.90;;;;;;7367586;19;20035;-65
2023/07/10 02:17:18;;;;;;;44.13;38.70;;;18.80;99.90;;;;;;7371698;19;20481;-65
2023/07/10 02:19:44;;;;;;;52.50;39.72;;;18.80;99.90;;;;;;7374258;19;20034;-66
2023/07/10 02:22:15;;;;;;;43.35;36.60;;;18.70;99.90;;;;;;7367911;19;20026;-65
2023/07/10 02:24:42;;;;;;;45.67;37.40;;;18.70;99.90;;;;;;7367780;19;20494;-65
2023/07/10 02:27:08;;;;;;;46.45;38.67;;;18.70;99.90;;;;;;7366994;19;20039;-66
2023/07/10 02:29:35;;;;;;;46.85;38.28;;;18.70;99.90;;;;;;7368333;19;20033;-64
2023/07/10 02:32:03;;;;;;;46.47;37.90;;;18.70;99.90;;;;;;7367095;19;20037;-64
2023/07/10 02:34:32;;;;;;;48.13;39.55;;;18.70;99.90;;;;;;7366067;19;20025;-60
2023/07/10 02:37:00;;;;;;;42.33;37.75;;;18.70;99.90;;;;;;7356122;19;20042;-59
2023/07/10 02:39:27;;;;;;;52.03;41.90;;;18.70;99.90;;;;;;7364717;19;20097;-60
2023/07/10 02:41:53;;;;;;;51.58;39.65;;;18.70;99.90;;;;;;7369827;19;20025;-66
2023/07/10 02:44:20;;;;;;;44.72;38.63;;;18.70;99.90;;;;;;7370283;19;20100;-60
2023/07/10 02:46:47;;;;;;;50.75;41.22;;;18.70;99.90;;;;;;7369915;19;20006;-64
2023/07/10 02:49:13;;;;;;;44.35;37.92;;;18.60;99.90;;;;;;7365008;19;20014;-65
2023/07/10 02:51:40;;;;;;;49.38;40.55;;;18.60;99.90;;;;;;7370921;19;20444;-65
2023/07/10 02:54:10;;;;;;;50.47;40.45;;;18.60;99.90;;;;;;7369310;19;20489;-65
2023/07/10 02:56:37;;;;;;;49.30;41.90;;;18.60;99.90;;;;;;7366126;19;20022;-65
2023/07/10 02:59:03;;;;;;;47.05;41.42;;;18.50;99.90;;;;;;7368181;19;20028;-66
2023/07/10 03:01:34;;;;;;;50.22;42.42;;;18.50;99.90;;;;;;7370876;19;20033;-65
2023/07/10 03:04:00;;;;;;;59.60;45.47;;;18.50;99.90;;;;;;7371940;19;20015;-64
2023/07/10 03:06:27;;;;;;;54.72;44.17;;;18.50;99.90;;;;;;7366508;19;20026;-65
2023/07/10 03:08:53;;;;;;;48.58;40.67;;;18.40;99.90;;;;;;7365808;19;20025;-65
2023/07/10 03:11:22;;;;;;;52.33;42.13;;;18.40;99.90;;;;;;7370679;19;20038;-66
2023/07/10 03:13:48;;;;;;;51.22;43.17;;;18.40;99.90;;;;;;7367697;19;20592;-64
2023/07/10 03:16:16;;;;;;;49.95;44.55;;;18.40;99.90;;;;;;7369301;19;20023;-67
2023/07/10 03:18:43;;;;;;;54.28;44.10;;;18.40;99.90;;;;;;7369144;19;20010;-65
2023/07/10 03:21:09;;;;;;;54.22;45.90;;;18.40;99.90;;;;;;7371415;19;20018;-65
2023/07/10 03:23:36;;;;;;;52.40;44.95;;;18.40;99.90;;;;;;7374408;19;20022;-65
2023/07/10 03:26:02;;;;;;;47.20;42.05;;;18.40;99.90;;;;;;7377487;19;20505;-65
2023/07/10 03:28:30;;;;;;;52.58;44.10;;;18.40;99.90;;;;;;7375809;19;20025;-65
2023/07/10 03:30:58;;;;;;;54.88;45.92;;;18.40;99.90;;;;;;7378228;19;20034;-65
2023/07/10 03:33:28;;;;;;;58.53;45.67;;;18.40;99.90;;;;;;7376783;19;20475;-65
2023/07/10 03:35:59;;;;;;;52.33;44.53;;;18.30;99.90;;;;;;7371216;19;20027;-65
2023/07/10 03:38:26;;;;;;;53.95;45.45;;;18.30;99.90;;;;;;7373364;19;20010;-65
2023/07/10 03:40:56;;;;;;;49.40;42.15;;;18.30;99.90;;;;;;7376199;19;20524;-65
2023/07/10 03:43:22;;;;;;;45.15;39.85;;;18.30;99.90;;;;;;7374836;19;20019;-65
2023/07/10 03:45:49;;;;;;;45.58;39.83;;;18.30;99.90;;;;;;7376074;19;20022;-65
2023/07/10 03:48:15;;;;;;;44.85;39.75;;;18.30;99.90;;;;;;7376487;19;20014;-65
2023/07/10 03:50:42;;;;;;;44.30;39.60;;;18.30;99.90;;;;;;7374204;19;20544;-65
2023/07/10 03:53:08;;;;;;;44.63;38.42;;;18.30;99.90;;;;;;7370079;19;20053;-65
2023/07/10 03:55:34;;;;;;;45.28;37.33;;;18.30;99.90;;;;;;7373560;19;20468;-65
2023/07/10 03:58:01;;;;;;;43.13;38.60;;;18.30;99.90;;;;;;7376540;19;20548;-65
2023/07/10 04:00:27;;;;;;;40.83;36.58;;;18.30;99.90;;;;;;7373148;19;20054;-60
2023/07/10 04:02:54;;;;;;;38.33;34.40;;;18.30;99.90;;;;;;7368509;19;20381;-60
2023/07/10 04:05:20;;;;;;;38.90;34.28;;;18.30;99.90;;;;;;7370652;19;20022;-60
2023/07/10 04:07:46;;;;;;;38.75;32.72;;;18.30;99.90;;;;;;7376835;19;20102;-65
2023/07/10 04:10:13;;;;;;;36.88;33.05;;;18.30;99.90;;;;;;7372335;19;20014;-60
2023/07/10 04:12:42;;;;;;;37.22;33.17;;;18.30;99.90;;;;;;7369091;19;20026;-60
2023/07/10 04:15:09;;;;;;;37.92;33.15;;;18.20;99.90;;;;;;7369918;19;20015;-60
2023/07/10 04:17:35;;;;;;;38.72;32.78;;;18.20;99.90;;;;;;7371759;19;20019;-60
2023/07/10 04:20:02;;;;;;;37.50;33.70;;;18.30;99.90;;;;;;7370643;19;20017;-60
2023/07/10 04:22:31;;;;;;;42.42;36.22;;;18.20;99.90;;;;;;7366796;19;20509;-60
2023/07/10 04:25:04;;;;;;;42.63;37.85;;;18.30;99.90;;;;;;7370320;19;20018;-65
2023/07/10 04:27:30;;;;;;;39.13;35.03;;;18.20;99.90;;;;;;7367220;19;20029;-65
2023/07/10 04:29:56;;;;;;;42.67;34.58;;;18.20;99.90;;;;;;7376207;19;20024;-65
2023/07/10 04:32:23;;;;;;;38.90;35.10;;;18.20;99.90;;;;;;7370453;19;20022;-65
2023/07/10 04:34:49;;;;;;;41.97;37.45;;;18.30;99.90;;;;;;7366734;19;20445;-64
2023/07/10 04:37:15;;;;;;;51.63;39.38;;;18.30;99.90;;;;;;7373931;19;20093;-65
2023/07/10 04:39:42;;;;;;;41.58;37.35;;;18.30;99.90;;;;;;7375487;19;20122;-66
2023/07/10 04:42:09;;;;;;;41.53;37.05;;;18.40;99.90;;;;;;7372522;19;20084;-66
2023/07/10 04:44:36;;;;;;;37.33;33.30;;;18.50;99.90;;;;;;7369576;19;20025;-65
2023/07/10 04:47:05;;;;;;;39.13;35.25;;;18.60;99.90;;;;;;7366918;19;20022;-67
2023/07/10 04:49:31;;;;;;;37.33;33.58;;;18.60;99.90;;;;;;7368226;19;20022;-66
2023/07/10 04:51:58;;;;;;;34.17;30.90;;;18.50;99.90;;;;;;7370145;19;20026;-67
2023/07/10 04:54:24;;;;;;;35.45;31.30;;;18.60;99.90;;;;;;7371462;19;20022;-65
2023/07/10 04:56:53;;;;;;;35.65;31.83;;;18.70;99.90;;;;;;7365304;19;20019;-67
2023/07/10 04:59:20;;;;;;;33.70;30.15;;;18.70;99.90;;;;;;7368948;19;20078;-67
2023/07/10 05:01:46;;;;;;;29.30;26.15;;;18.60;99.90;;;;;;7372076;19;20026;-67
2023/07/10 05:04:12;;;;;;;28.33;25.50;;;18.60;99.90;;;;;;7367783;19;21254;-67
2023/07/10 05:06:39;;;;;;;24.58;22.08;;;18.60;99.90;;;;;;7366219;19;20018;-66
2023/07/10 05:09:05;;;;;;;19.67;17.55;;;18.60;99.90;;;;;;7371086;19;20022;-67
2023/07/10 05:11:31;;;;;;;18.67;16.55;;;18.50;99.90;;;;;;7370637;19;20492;-67
2023/07/10 05:13:58;;;;;;;17.50;14.95;;;18.50;99.90;;;;;;7369288;19;20049;-66
2023/07/10 05:16:25;;;;;;;17.17;15.35;;;18.50;99.90;;;;;;7370247;19;20022;-66
2023/07/10 05:18:51;;;;;;;16.27;14.30;;;18.50;99.90;;;;;;7369416;19;20713;-68
2023/07/10 05:21:18;;;;;;;16.38;14.60;;;18.50;99.90;;;;;;7369870;19;20098;-67
2023/07/10 05:23:44;;;;;;;14.02;10.55;;;18.50;99.90;;;;;;7371321;19;20062;-66
2023/07/10 05:26:13;;;;;;;10.70;9.60;;;18.50;99.90;;;;;;7373258;19;20022;-66
2023/07/10 05:28:40;;;;;;;9.15;8.10;;;18.40;99.90;;;;;;7370061;19;20029;-66
2023/07/10 05:31:08;;;;;;;9.20;7.80;;;18.40;99.90;;;;;;7369856;19;20014;-66
2023/07/10 05:33:36;;;;;;;10.35;7.07;;;18.40;99.90;;;;;;7366891;19;20351;-66
2023/07/10 05:36:04;;;;;;;11.95;7.15;;;18.50;99.90;;;;;;7369000;19;20097;-66
2023/07/10 05:38:33;;;;;;;9.80;6.22;;;18.40;99.90;;;;;;7365194;19;20465;-66
2023/07/10 05:41:03;;;;;;;11.90;6.05;;;18.50;99.90;;;;;;7376742;19;20014;-66
2023/07/10 05:43:32;;;;;;;7.05;4.93;;;18.50;99.90;;;;;;7372017;19;20513;-59
2023/07/10 05:45:59;;;;;;;10.95;5.38;;;18.50;99.90;;;;;;7369870;19;20026;-65
2023/07/10 05:48:26;;;;;;;10.25;4.28;;;18.60;99.90;;;;;;7369344;19;20106;-60
2023/07/10 05:50:53;;;;;;;8.15;3.80;;;18.60;99.90;;;;;;7372303;19;20393;-65
2023/07/10 05:53:22;;;;;;;9.90;4.18;;;18.60;99.90;;;;;;7370375;19;20021;-65
2023/07/10 05:55:51;;;;;;;8.68;3.88;;;18.70;99.90;;;;;;7366374;19;21239;-65
2023/07/10 05:58:19;;;;;;;7.32;3.88;;;18.70;99.90;;;;;;7372661;19;20473;-59
2023/07/10 06:00:49;;;;;;;7.05;3.95;;;18.70;99.90;;;;;;7375362;19;20018;-59
2023/07/10 06:03:15;;;;;;;6.15;3.55;;;18.80;99.90;;;;;;7371552;19;20015;-60
2023/07/10 06:05:42;;;;;;;7.15;3.47;;;18.80;99.90;;;;;;7374230;19;20046;-65
2023/07/10 06:08:10;;;;;;;7.50;4.32;;;18.80;99.90;;;;;;7370593;19;20015;-68
2023/07/10 06:10:37;;;;;;;6.65;3.85;;;19.00;99.90;;;;;;7370446;19;20018;-70
2023/07/10 06:13:03;;;;;;;5.53;3.47;;;19.00;99.90;;;;;;7376471;19;20042;-69
2023/07/10 06:15:30;;;;;;;9.00;4.00;;;19.00;99.90;;;;;;7374450;19;20029;-69
2023/07/10 06:17:56;;;;;;;9.15;4.28;;;19.00;99.90;;;;;;7369019;19;20046;-68
2023/07/10 06:20:23;;;;;;;6.25;3.70;;;19.10;99.90;;;;;;7372083;19;20018;-69
2023/07/10 06:22:49;;;;;;;6.97;3.45;;;19.20;99.90;;;;;;7372610;19;20620;-68
2023/07/10 06:25:15;;;;;;;6.85;3.30;;;19.30;99.90;;;;;;7375975;19;20050;-68
2023/07/10 06:27:41;;;;;;;6.82;3.22;;;19.40;99.90;;;;;;7372386;19;21507;-69
2023/07/10 06:30:08;;;;;;;5.38;2.85;;;19.50;99.90;;;;;;7378692;19;20023;-68
2023/07/10 06:32:36;;;;;;;7.53;3.47;;;19.70;99.90;;;;;;7365206;19;20488;-61
2023/07/10 06:35:03;;;;;;;7.35;3.63;;;20.00;99.90;;;;;;7371343;19;20878;-62
2023/07/10 06:37:32;;;;;;;8.13;3.30;;;20.10;99.90;;;;;;7370185;19;20019;-66
2023/07/10 06:40:15;;;;;;;8.50;3.35;;;20.10;99.90;;;;;;7376293;19;20081;-66
2023/07/10 06:42:42;;;;;;;10.32;3.80;;;20.10;99.90;;;;;;7367766;19;20086;-67
2023/07/10 06:45:13;;;;;;;6.68;3.45;;;20.20;99.90;;;;;;7370470;19;20059;-67
2023/07/10 06:47:45;;;;;;;7.43;3.20;;;20.30;99.90;;;;;;7369439;19;20039;-68
2023/07/10 06:50:13;;;;;;;6.25;3.13;;;20.70;99.90;;;;;;7372991;19;20026;-68
2023/07/10 06:52:42;;;;;;;9.32;2.72;;;20.80;99.90;;;;;;7366824;19;20025;-66
2023/07/10 06:55:15;;;;;;;11.75;7.47;;;20.80;99.90;;;;;;7374846;19;20026;-62
2023/07/10 06:57:42;;;;;;;5.68;2.50;;;20.90;99.90;;;;;;7365926;19;20031;-61
2023/07/10 07:00:11;;;;;;;5.93;2.45;;;21.20;99.90;;;;;;7372702;19;20457;-67
2023/07/10 07:02:38;;;;;;;5.00;1.92;;;21.40;99.90;;;;;;7367829;19;20026;-68
2023/07/10 07:05:07;;;;;;;6.55;2.55;;;21.70;99.90;;;;;;7357772;19;20022;-68
2023/07/10 07:07:36;;;;;;;7.45;2.65;;;22.10;99.90;;;;;;7351215;19;20022;-61
2023/07/10 07:10:02;;;;;;;6.32;2.55;;;22.40;99.90;;;;;;7366479;19;20394;-61
2023/07/10 07:12:31;;;;;;;8.55;2.95;;;22.40;99.90;;;;;;7369345;19;20015;-61
2023/07/10 07:14:58;;;;;;;6.72;2.25;;;22.50;99.90;;;;;;7371679;19;20026;-60
2023/07/10 07:17:25;;;;;;;7.60;2.20;;;22.60;99.90;;;;;;7370272;19;20596;-61
2023/07/10 07:19:52;;;;;;;7.65;2.50;;;22.70;99.90;;;;;;7371509;19;20085;-66
2023/07/10 07:22:18;;;;;;;5.50;2.30;;;22.90;99.90;;;;;;7368628;19;20028;-65
2023/07/10 07:24:44;;;;;;;11.68;9.90;;;22.90;99.90;;;;;;7374398;19;20026;-69
2023/07/10 07:27:11;;;;;;;9.77;4.28;;;23.20;99.90;;;;;;7375066;19;20018;-65
2023/07/10 07:29:38;;;;;;;7.90;2.40;;;23.40;99.90;;;;;;7378640;19;20011;-70
2023/07/10 07:32:04;;;;;;;19.00;17.05;;;23.40;99.90;;;;;;7373331;19;20018;-65
2023/07/10 07:34:31;;;;;;;7.82;3.42;;;23.80;99.90;;;;;;7375540;19;20039;-64
2023/07/10 07:36:57;;;;;;;4.57;2.53;;;24.10;99.90;;;;;;7375085;19;20788;-65
2023/07/10 07:39:28;;;;;;;4.65;2.88;;;24.40;99.90;;;;;;7371595;19;20018;-61
2023/07/10 07:41:54;;;;;;;10.82;8.25;;;24.60;99.90;;;;;;7373710;19;20019;-62
2023/07/10 07:44:20;;;;;;;12.40;7.85;;;24.90;99.90;;;;;;7373601;19;20018;-64
2023/07/10 07:46:47;;;;;;;14.48;11.07;;;25.00;99.90;;;;;;7374379;19;20026;-64
2023/07/10 07:49:14;;;;;;;13.80;10.50;;;24.90;99.90;;;;;;7373595;19;20489;-61
2023/07/10 07:51:40;;;;;;;7.75;4.68;;;25.00;99.90;;;;;;7371403;19;20433;-64
2023/07/10 07:54:10;;;;;;;10.80;8.07;;;25.30;99.90;;;;;;7371506;19;20470;-64
2023/07/10 07:56:37;;;;;;;11.90;7.13;;;25.40;99.90;;;;;;7381284;19;20475;-61
2023/07/10 07:59:03;;;;;;;6.43;2.40;;;25.40;99.90;;;;;;7373472;19;20564;-64
2023/07/10 08:01:30;;;;;;;20.15;17.55;;;25.40;99.90;;;;;;7372794;19;20038;-61
2023/07/10 08:03:57;;;;;;;9.65;5.93;;;25.60;99.90;;;;;;7368575;19;20038;-61
2023/07/10 08:06:28;;;;;;;34.60;31.02;;;25.60;99.90;;;;;;7368490;19;20842;-60
2023/07/10 08:08:54;;;;;;;;;;;25.90;99.90;;;;;;7374808;19;20006;-60
2023/07/10 08:11:21;;;;;;;7.70;4.10;;;26.10;99.90;;;;;;7380600;19;20002;-62
2023/07/10 08:13:48;;;;;;;11.85;7.18;;;25.90;99.90;;;;;;7376288;19;20036;-62
2023/07/10 08:16:14;;;;;;;9.07;3.20;;;26.20;99.90;;;;;;7373165;19;20011;-62
2023/07/10 08:18:41;;;;;;;7.63;1.88;;;26.00;99.90;;;;;;7377751;19;20029;-63
2023/07/10 08:21:10;;;;;;;6.85;2.70;;;25.60;99.90;;;;;;7384402;19;20017;-67
2023/07/10 08:23:37;;;;;;;6.80;2.15;;;25.80;99.90;;;;;;7383185;19;21177;-63
2023/07/10 08:26:04;;;;;;;9.30;5.40;;;26.00;99.90;;;;;;7381953;19;20033;-63
2023/07/10 08:28:31;;;;;;;10.23;5.25;;;26.20;99.90;;;;;;7372862;19;20022;-61
2023/07/10 08:30:57;;;;;;;6.97;3.83;;;26.30;99.90;;;;;;7376785;19;20397;-63
2023/07/10 08:33:23;;;;;;;7.00;2.60;;;26.60;99.90;;;;;;7372553;19;20496;-59
2023/07/10 08:36:08;;;;;;;8.65;2.05;;;25.90;99.90;;;;;;7370044;19;20018;-62
2023/07/10 08:38:36;;;;;;;8.65;2.90;;;26.20;99.90;;;;;;7371183;19;20691;-61
2023/07/10 08:41:17;;;;;;;7.53;2.08;;;26.10;99.90;;;;;;7377172;19;20363;-61
2023/07/10 08:43:45;;;;;;;5.82;2.58;;;26.00;99.90;;;;;;7373262;19;20025;-62
2023/07/10 08:46:22;;;;;;;33.90;30.05;;;26.20;99.90;;;;;;7377084;19;20470;-61
2023/07/10 08:49:13;;;;;;;9.25;2.45;;;26.40;99.90;;;;;;7375078;19;20036;-59
2023/07/10 08:51:57;;;;;;;6.82;2.15;;;26.40;99.90;;;;;;7378060;19;20403;-59
2023/07/10 08:54:23;;;;;;;6.95;2.35;;;26.40;99.90;;;;;;7378856;19;20871;-63
2023/07/10 08:57:14;;;;;;;7.55;2.67;;;26.40;99.90;;;;;;7369729;19;20018;-64
2023/07/10 08:59:51;;;;;;;;;;;26.50;99.90;;;;;;7375940;19;20057;-63
2023/07/10 09:02:37;;;;;;;7.68;2.60;;;26.30;99.90;;;;;;7377587;19;19923;-59
2023/07/10 09:05:11;;;;;;;9.55;2.80;;;26.10;99.90;;;;;;7373691;19;20020;-64
2023/07/10 09:07:42;;;;;;;7.22;2.40;;;25.80;99.90;;;;;;7374417;19;20019;-64
2023/07/10 09:10:18;;;;;;;7.47;2.28;;;25.90;99.90;;;;;;7374670;19;20025;-64
2023/07/10 09:12:57;;;;;;;10.68;4.15;;;25.90;99.90;;;;;;7373915;19;20038;-64
2023/07/10 09:15:28;;;;;;;9.65;2.60;;;25.60;99.90;;;;;;7371727;19;20102;-64
2023/07/10 09:18:21;;;;;;;7.60;2.42;;;25.80;99.90;;;;;;7371548;19;20018;-64
2023/07/10 09:20:52;;;;;;;10.98;3.35;;;26.10;99.90;;;;;;7368058;19;20448;-61
2023/07/10 09:23:28;;;;;;;6.38;2.35;;;26.10;99.90;;;;;;7372592;19;20022;-63
2023/07/10 09:26:12;;;;;;;8.60;2.50;;;26.40;99.90;;;;;;7375258;19;20478;-64
2023/07/10 09:28:40;;;;;;;9.48;3.13;;;26.20;99.90;;;;;;7371048;19;20351;-65
2023/07/10 09:31:30;;;;;;;8.30;2.65;;;26.30;99.90;;;;;;7374277;19;20022;-64
2023/07/10 09:34:00;;;;;;;11.15;2.50;;;25.90;99.90;;;;;;7375896;19;20015;-64
2023/07/10 09:36:27;;;;;;;7.20;3.15;;;25.50;99.90;;;;;;7375238;19;20033;-64
2023/07/10 09:38:56;;;;;;;8.75;3.30;;;25.60;99.90;;;;;;7377840;19;20014;-68
2023/07/10 09:41:28;;;;;;;5.53;2.45;;;25.50;99.90;;;;;;7374315;19;20465;-68
2023/07/10 09:44:16;;;;;;;8.13;2.30;;;25.70;99.90;;;;;;7379738;19;20018;-62
2023/07/10 09:46:43;;;;;;;8.38;2.72;;;26.40;99.90;;;;;;7380357;19;20014;-62
2023/07/10 09:49:20;;;;;;;7.15;2.70;;;26.20;99.90;;;;;;7382147;19;20037;-62
2023/07/10 09:51:59;;;;;;;8.35;2.50;;;26.20;99.90;;;;;;7377583;19;20273;-62
2023/07/10 09:54:38;;;;;;;7.80;2.67;;;26.10;99.90;;;;;;7381367;19;20462;-62
2023/07/10 09:57:13;;;;;;;9.45;3.58;;;26.40;99.90;;;;;;7383261;19;20489;-62
2023/07/10 09:59:50;;;;;;;10.00;2.70;;;26.20;99.90;;;;;;7378834;19;20021;-62
2023/07/10 10:02:23;;;;;;;11.13;2.90;;;26.40;99.90;;;;;;7383006;19;20417;-62
2023/07/10 10:04:53;;;;;;;5.88;2.17;;;26.80;99.90;;;;;;7379562;19;20052;-62
2023/07/10 10:07:20;;;;;;;7.22;2.40;;;27.00;99.90;;;;;;7375907;19;20014;-66
2023/07/10 10:09:46;;;;;;;10.48;2.65;;;26.70;99.90;;;;;;7379093;19;20689;-63
2023/07/10 10:12:32;;;;;;;9.63;2.30;;;26.80;99.90;;;;;;7381447;19;20011;-64
2023/07/10 10:15:16;;;;;;;9.98;2.50;;;26.20;99.90;;;;;;7378741;19;20022;-63
2023/07/10 10:17:44;;;;;;;12.35;2.83;;;25.80;99.90;;;;;;7378481;19;20022;-64
2023/07/10 10:20:27;;;;;;;8.43;2.20;;;25.90;99.90;;;;;;7374731;19;20019;-64
2023/07/10 10:22:54;;;;;;;10.80;2.47;;;26.20;99.90;;;;;;7380517;19;20018;-64
2023/07/10 10:25:30;;;;;;;7.57;2.17;;;26.50;99.90;;;;;;7378100;19;20010;-64
2023/07/10 10:28:12;;;;;;;12.85;3.00;;;27.10;99.90;;;;;;7380629;19;20010;-64
2023/07/10 10:30:49;;;;;;;7.43;3.00;;;27.40;99.90;;;;;;7379102;19;20034;-59
2023/07/10 10:33:51;;;;;;;6.82;2.20;;;27.50;99.90;;;;;;7364096;19;20014;-59
2023/07/10 10:36:42;;;;;;;9.65;2.15;;;27.90;99.20;;;;;;7369170;19;20095;-59
2023/07/10 10:39:21;;;;;;;7.15;2.20;;;28.50;98.80;;;;;;7368519;19;20545;-59
2023/07/10 10:42:02;;;;;;;9.55;3.28;;;28.40;98.00;;;;;;7370502;19;20098;-59
2023/07/10 10:44:51;;;;;;;6.60;2.08;;;28.30;97.00;;;;;;7373318;19;20018;-59
2023/07/10 10:47:44;;;;;;;7.32;2.22;;;28.50;96.00;;;;;;7368999;19;20612;-59
2023/07/10 10:50:28;;;;;;;10.68;2.88;;;28.30;95.40;;;;;;7369410;19;20817;-64
2023/07/10 10:53:14;;;;;;;9.40;2.28;;;28.40;95.40;;;;;;7381045;19;20022;-64
2023/07/10 10:56:33;;;;;;;8.05;2.25;;;28.20;93.70;;;;;;7374061;19;20511;-64
2023/07/10 10:59:18;;;;;;;7.22;2.60;;;28.70;93.50;;;;;;7374677;19;20025;-63
2023/07/10 11:02:19;;;;;;;8.57;2.05;;;28.50;93.50;;;;;;7377003;19;20038;-63
2023/07/10 11:04:58;;;;;;;9.63;2.58;;;28.70;93.30;;;;;;7377066;19;20021;-64
2023/07/10 11:07:26;;;;;;;9.32;2.75;;;29.40;93.80;;;;;;7379237;19;20605;-63
2023/07/10 11:10:01;;;;;;;8.85;2.10;;;29.40;92.80;;;;;;7378658;19;20036;-64
2023/07/10 11:12:31;;;;;;;8.60;2.30;;;29.70;91.50;;;;;;7375618;19;20018;-64
2023/07/10 11:15:14;;;;;;;7.20;1.98;;;29.20;91.30;;;;;;7379549;19;20015;-64
2023/07/10 11:17:44;;;;;;;7.47;2.38;;;29.20;89.50;;;;;;7371970;19;20113;-59
2023/07/10 11:20:15;;;;;;;19.27;16.15;;;29.10;85.30;;;;;;7373294;19;20085;-58
2023/07/10 11:22:52;;;;;;;40.35;36.25;;;29.40;86.80;;;;;;7368980;19;20018;-62
2023/07/10 11:25:39;;;;;;;33.80;30.35;;;29.60;83.10;;;;;;7371091;19;20018;-62
2023/07/10 11:28:25;;;;;;;13.23;3.95;;;29.70;80.80;;;;;;7369350;19;20047;-62
2023/07/10 11:31:19;;;;;;;15.82;10.15;;;29.10;82.20;;;;;;7365517;19;20473;-62
2023/07/10 11:33:52;;;;;;;7.78;1.95;;;28.20;83.00;;;;;;7369355;19;20488;-62
2023/07/10 11:36:38;;;;;;;14.77;11.75;;;28.50;84.40;;;;;;7369486;19;20023;-64
2023/07/10 11:39:10;;;;;;;7.90;3.08;;;28.30;83.30;;;;;;7378413;19;20364;-64
2023/07/10 11:41:58;;;;;;;8.15;2.55;;;27.50;84.50;;;;;;7375079;19;20018;-66
2023/07/10 11:44:28;;;;;;;23.38;19.92;;;27.10;85.60;;;;;;7376487;19;20066;-64
2023/07/10 11:47:00;;;;;;;7.23;2.80;;;27.70;86.90;;;;;;7380897;19;20014;-64
2023/07/10 11:49:35;;;;;;;12.90;6.70;;;27.70;87.10;;;;;;7386596;19;20273;-63
2023/07/10 11:52:26;;;;;;;9.07;2.53;;;27.40;86.40;;;;;;7383420;19;20077;-65
2023/07/10 11:54:56;;;;;;;;;;;27.10;88.80;;;;;;7381748;19;20037;-63
2023/07/10 11:57:27;;;;;;;8.60;2.03;;;27.40;87.90;;;;;;7382115;19;20278;-64
2023/07/10 12:00:19;;;;;;;10.00;2.38;;;28.10;85.40;;;;;;7380026;19;20029;-63
2023/07/10 12:02:51;;;;;;;5.70;1.65;;;28.00;85.20;;;;;;7382340;19;20508;-64
2023/07/10 12:05:22;;;;;;;9.05;1.95;;;27.70;81.80;;;;;;7373031;19;20114;-63
2023/07/10 12:08:07;;;;;;;8.35;1.92;;;28.30;83.60;;;;;;7376380;19;20018;-58
2023/07/10 12:10:53;;;;;;;9.02;2.00;;;28.00;81.50;;;;;;7371957;19;20391;-59
2023/07/10 12:13:31;;;;;;;8.90;2.33;;;27.60;82.10;;;;;;7379372;19;20319;-63
2023/07/10 12:16:09;;;;;;;6.88;1.70;;;27.60;82.60;;;;;;7377716;19;20022;-63
2023/07/10 12:18:38;;;;;;;6.15;1.98;;;27.30;81.90;;;;;;7378050;19;20474;-63
2023/07/10 12:21:25;;;;;;;7.57;2.00;;;27.10;82.80;;;;;;7376915;19;20018;-63
2023/07/10 12:23:52;;;;;;;7.28;1.73;;;26.80;83.60;;;;;;7378469;19;20022;-63
2023/07/10 12:26:18;;;;;;;6.72;2.25;;;27.00;82.30;;;;;;7379549;19;20039;-63
2023/07/10 12:28:45;;;;;;;8.50;1.92;;;27.70;84.30;;;;;;7379342;19;20854;-63
2023/07/10 12:31:14;;;;;;;6.10;1.83;;;28.00;81.30;;;;;;7376738;19;20037;-63
2023/07/10 12:33:45;;;;;;;8.32;2.33;;;28.20;80.60;;;;;;7376757;19;20493;-63
2023/07/10 12:36:18;;;;;;;7.03;2.05;;;28.30;79.50;;;;;;7375792;19;20035;-63
2023/07/10 12:38:45;;;;;;;5.88;1.40;;;28.60;79.20;;;;;;7378165;19;20030;-63
2023/07/10 12:41:11;;;;;;;8.77;1.98;;;28.60;79.80;;;;;;7372987;19;20026;-65
2023/07/10 12:43:37;;;;;;;5.72;1.95;;;28.00;79.00;;;;;;7373966;19;20086;-65
2023/07/10 12:46:16;;;;;;;8.32;2.00;;;28.00;79.20;;;;;;7371438;19;20023;-64
2023/07/10 12:48:44;;;;;;;6.05;2.00;;;27.80;79.60;;;;;;7372359;19;20664;-67
2023/07/10 12:51:27;;;;;;;7.25;2.05;;;28.00;79.90;;;;;;7378519;19;20022;-67
2023/07/10 12:53:54;;;;;;;10.40;2.40;;;28.50;80.20;;;;;;7369331;19;20017;-66
2023/07/10 12:56:30;;;;;;;6.93;1.45;;;28.80;77.30;;;;;;7366236;19;20523;-64
2023/07/10 12:58:58;;;;;;;6.28;1.80;;;29.30;76.30;;;;;;7374361;19;20949;-59